createdAt,value
2023-04-20T00:01:10.993Z,1.60
2023-04-20T00:03:39.451Z,1.60
2023-04-20T00:06:08.002Z,1.50
2023-04-20T00:08:35.401Z,1.40
2023-04-20T00:11:02.498Z,1.40
2023-04-20T00:13:29.548Z,1.40
2023-04-20T00:15:56.676Z,1.40
2023-04-20T00:18:23.822Z,1.30
2023-04-20T00:20:50.965Z,1.30
2023-04-20T00:23:18.086Z,1.30
2023-04-20T00:25:45.366Z,1.50
2023-04-20T00:28:12.492Z,1.40
2023-04-20T00:30:39.590Z,1.40
2023-04-20T00:33:06.789Z,1.30
2023-04-20T00:35:33.977Z,1.20
2023-04-20T00:38:01.117Z,1.20
2023-04-20T00:40:28.172Z,1.20
2023-04-20T00:42:55.310Z,1.10
2023-04-20T00:45:22.562Z,1.10
2023-04-20T00:47:49.660Z,1.00
2023-04-20T00:50:18.377Z,1.00
2023-04-20T00:52:46.283Z,1.00
2023-04-20T00:55:13.776Z,1.00
2023-04-20T00:57:41.675Z,1.00
2023-04-20T01:00:10.766Z,1.00
2023-04-20T01:02:37.994Z,1.00
2023-04-20T01:05:05.708Z,1.00
2023-04-20T01:07:32.876Z,1.10
2023-04-20T01:10:00.031Z,1.20
2023-04-20T01:12:27.139Z,1.30
2023-04-20T01:14:54.364Z,1.40
2023-04-20T01:17:22.378Z,1.60
2023-04-20T01:19:49.771Z,1.50
2023-04-20T01:22:19.145Z,1.40
2023-04-20T01:24:46.520Z,1.30
2023-04-20T01:27:16.548Z,1.10
2023-04-20T01:29:44.987Z,1.00
2023-04-20T01:32:13.004Z,0.90
2023-04-20T01:34:41.872Z,0.90
2023-04-20T01:37:09.379Z,0.80
2023-04-20T01:39:40.184Z,0.80
2023-04-20T01:42:07.958Z,0.80
2023-04-20T01:44:35.327Z,0.90
2023-04-20T01:47:02.562Z,0.90
2023-04-20T01:49:29.825Z,0.80
2023-04-20T01:51:57.242Z,0.70
2023-04-20T01:54:24.878Z,0.70
2023-04-20T01:56:51.970Z,0.60
2023-04-20T01:59:19.244Z,0.50
2023-04-20T02:01:46.526Z,0.30
2023-04-20T02:04:13.695Z,0.40
2023-04-20T02:06:41.882Z,0.50
2023-04-20T02:09:09.479Z,0.50
2023-04-20T02:11:36.742Z,0.50
2023-04-20T02:14:03.945Z,0.40
2023-04-20T02:16:31.634Z,0.30
2023-04-20T02:18:58.886Z,0.30
2023-04-20T02:21:26.010Z,0.20
2023-04-20T02:23:53.107Z,0.20
2023-04-20T02:26:20.205Z,0.20
2023-04-20T02:28:47.514Z,0.30
2023-04-20T02:31:14.647Z,0.50
2023-04-20T02:33:41.829Z,0.60
2023-04-20T02:36:09.467Z,0.90
2023-04-20T02:38:38.097Z,1.30
2023-04-20T02:41:05.414Z,1.50
2023-04-20T02:43:34.298Z,1.70
2023-04-20T02:46:01.643Z,1.90
2023-04-20T02:48:28.810Z,2.00
2023-04-20T02:50:57.190Z,2.10
2023-04-20T02:53:24.322Z,2.30
2023-04-20T02:55:51.446Z,2.40
2023-04-20T02:58:18.818Z,2.50
2023-04-20T03:00:46.033Z,2.60
2023-04-20T03:03:13.301Z,2.80
2023-04-20T03:05:42.080Z,2.80
2023-04-20T03:08:09.307Z,3.00
2023-04-20T03:10:36.375Z,3.00
2023-04-20T03:13:03.487Z,3.00
2023-04-20T03:15:30.770Z,3.00
2023-04-20T03:17:57.853Z,3.10
2023-04-20T03:20:25.401Z,3.10
2023-04-20T03:22:52.520Z,3.10
2023-04-20T03:25:19.942Z,3.20
2023-04-20T03:27:47.832Z,3.10
2023-04-20T03:30:15.521Z,3.20
2023-04-20T03:32:42.955Z,3.20
2023-04-20T03:35:10.679Z,3.20
2023-04-20T03:37:38.391Z,3.10
2023-04-20T03:40:07.349Z,3.10
2023-04-20T03:42:36.612Z,3.10
2023-04-20T03:45:05.890Z,3.30
2023-04-20T03:47:33.458Z,3.40
2023-04-20T03:50:00.658Z,3.40
2023-04-20T03:52:27.780Z,3.40
2023-04-20T03:54:54.837Z,3.40
2023-04-20T03:57:21.973Z,3.30
2023-04-20T03:59:49.065Z,3.20
2023-04-20T04:02:16.807Z,3.20
2023-04-20T04:04:45.395Z,3.10
2023-04-20T04:07:12.579Z,3.00
2023-04-20T04:09:39.667Z,3.10
2023-04-20T04:12:07.374Z,3.20
2023-04-20T04:14:35.704Z,3.10
2023-04-20T04:17:03.370Z,3.00
2023-04-20T04:19:30.581Z,2.90
2023-04-20T04:21:57.641Z,2.80
2023-04-20T04:24:24.828Z,2.70
2023-04-20T04:26:52.300Z,2.70
2023-04-20T04:29:20.244Z,2.70
2023-04-20T04:31:47.588Z,2.60
2023-04-20T04:34:14.820Z,2.60
2023-04-20T04:36:41.900Z,2.60
2023-04-20T04:39:08.961Z,2.60
2023-04-20T04:41:36.873Z,2.70
2023-04-20T04:44:06.053Z,2.90
2023-04-20T04:46:33.775Z,3.00
2023-04-20T04:49:04.482Z,3.10
2023-04-20T04:51:31.842Z,3.20
2023-04-20T04:53:59.014Z,3.30
2023-04-20T04:56:27.507Z,3.30
2023-04-20T04:58:56.337Z,3.30
2023-04-20T05:01:23.522Z,3.40
2023-04-20T05:03:50.785Z,3.50
2023-04-20T05:06:17.979Z,3.60
2023-04-20T05:08:46.097Z,3.80
2023-04-20T05:11:13.273Z,3.80
2023-04-20T05:13:40.342Z,4.00
2023-04-20T05:16:07.989Z,4.10
2023-04-20T05:18:35.130Z,4.20
2023-04-20T05:21:02.446Z,4.20
2023-04-20T05:23:29.568Z,4.40
2023-04-20T05:25:56.993Z,4.50
2023-04-20T05:28:24.255Z,4.60
2023-04-20T05:30:51.751Z,4.60
2023-04-20T05:33:18.883Z,4.50
2023-04-20T05:35:46.469Z,4.60
2023-04-20T05:38:13.558Z,4.70
2023-04-20T05:40:40.731Z,4.70
2023-04-20T05:43:07.806Z,4.70
2023-04-20T05:45:35.095Z,4.80
2023-04-20T05:48:02.488Z,4.90
2023-04-20T05:50:29.634Z,4.90
2023-04-20T05:52:57.111Z,5.00
2023-04-20T05:55:24.465Z,5.00
2023-04-20T05:57:54.764Z,5.10
2023-04-20T06:00:24.410Z,5.20
2023-04-20T06:02:54.545Z,5.10
2023-04-20T06:05:22.168Z,5.20
2023-04-20T06:07:49.314Z,5.20
2023-04-20T06:10:16.573Z,5.30
2023-04-20T06:12:43.659Z,5.40
2023-04-20T06:15:11.517Z,5.40
2023-04-20T06:17:41.171Z,5.40
2023-04-20T06:20:12.212Z,5.40
2023-04-20T06:22:47.071Z,5.50
2023-04-20T06:25:15.834Z,5.50
2023-04-20T06:27:55.697Z,5.50
2023-04-20T06:30:23.296Z,5.50
2023-04-20T06:32:51.644Z,5.50
2023-04-20T06:35:18.855Z,5.50
2023-04-20T06:37:46.521Z,5.50
2023-04-20T06:40:16.121Z,5.70
2023-04-20T06:42:43.564Z,5.80
2023-04-20T06:45:11.367Z,6.00
2023-04-20T06:47:38.615Z,6.10
2023-04-20T06:50:10.025Z,6.20
2023-04-20T06:52:39.242Z,6.20
2023-04-20T06:55:07.189Z,6.30
2023-04-20T06:57:34.396Z,6.30
2023-04-20T07:00:01.587Z,6.50
2023-04-20T07:02:30.333Z,6.60
2023-04-20T07:05:02.733Z,6.70
2023-04-20T07:07:29.839Z,6.90
2023-04-20T07:09:57.040Z,7.00
2023-04-20T07:12:24.149Z,7.00
2023-04-20T07:14:51.358Z,7.00
2023-04-20T07:17:18.428Z,7.00
2023-04-20T07:19:45.585Z,7.00
2023-04-20T07:22:12.636Z,7.00
2023-04-20T07:24:39.659Z,7.00
2023-04-20T07:27:08.566Z,6.90
2023-04-20T07:29:35.655Z,6.90
2023-04-20T07:32:02.858Z,6.90
2023-04-20T07:34:30.297Z,6.80
2023-04-20T07:36:57.438Z,6.90
2023-04-20T07:39:27.342Z,7.00
2023-04-20T07:41:54.854Z,7.10
2023-04-20T07:44:21.920Z,7.10
2023-04-20T07:46:49.806Z,7.30
2023-04-20T07:49:17.041Z,7.40
2023-04-20T07:51:45.534Z,7.60
2023-04-20T07:54:12.589Z,7.80
2023-04-20T07:56:39.715Z,7.90
2023-04-20T07:59:06.814Z,8.00
2023-04-20T08:01:33.987Z,8.10
2023-04-20T08:04:01.360Z,8.30
2023-04-20T08:06:28.717Z,8.40
2023-04-20T08:08:55.956Z,8.50
2023-04-20T08:11:24.563Z,8.60
2023-04-20T08:13:51.840Z,8.60
2023-04-20T08:16:19.038Z,8.60
2023-04-20T08:18:46.662Z,8.60
2023-04-20T08:21:14.645Z,8.70
2023-04-20T08:23:41.719Z,8.60
2023-04-20T08:26:08.981Z,8.60
2023-04-20T08:28:36.089Z,8.70
2023-04-20T08:31:03.321Z,8.90
2023-04-20T08:33:33.160Z,8.90
2023-04-20T08:36:00.395Z,9.00
2023-04-20T08:38:33.732Z,9.10
2023-04-20T08:41:02.045Z,9.30
2023-04-20T08:43:29.853Z,9.60
2023-04-20T08:46:04.306Z,9.80
2023-04-20T08:48:38.277Z,9.80
2023-04-20T08:51:06.341Z,9.90
2023-04-20T08:53:33.677Z,10.10
2023-04-20T08:56:01.342Z,10.30
2023-04-20T08:58:32.928Z,10.60
2023-04-20T09:01:01.445Z,10.60
2023-04-20T09:03:42.778Z,10.90
2023-04-20T09:06:18.244Z,11.10
2023-04-20T09:08:47.056Z,11.40
2023-04-20T09:11:32.331Z,11.40
2023-04-20T09:14:10.299Z,11.40
2023-04-20T09:16:39.594Z,11.60
2023-04-20T09:19:09.257Z,11.70
2023-04-20T09:21:36.897Z,11.90
2023-04-20T09:24:08.723Z,12.10
2023-04-20T09:26:36.797Z,12.20
2023-04-20T09:29:04.906Z,12.10
2023-04-20T09:31:32.025Z,11.70
2023-04-20T09:34:04.159Z,11.60
2023-04-20T09:36:50.325Z,11.40
2023-04-20T09:39:27.161Z,11.20
2023-04-20T09:41:56.948Z,11.20
2023-04-20T09:44:26.949Z,11.00
2023-04-20T09:46:54.122Z,10.80
2023-04-20T09:49:22.173Z,10.70
2023-04-20T09:51:49.871Z,10.90
2023-04-20T09:54:17.494Z,11.20
2023-04-20T09:56:46.081Z,11.40
2023-04-20T09:59:14.622Z,11.70
2023-04-20T10:01:41.847Z,11.70
2023-04-20T10:04:11.154Z,11.50
2023-04-20T10:06:38.851Z,11.50
2023-04-20T10:09:08.583Z,11.30
2023-04-20T10:11:51.642Z,11.20
2023-04-20T10:14:23.562Z,11.00
2023-04-20T10:17:09.398Z,10.80
2023-04-20T10:19:45.021Z,10.70
2023-04-20T10:22:25.391Z,11.00
2023-04-20T10:24:52.524Z,11.20
2023-04-20T10:27:23.000Z,11.30
2023-04-20T10:29:52.289Z,11.30
2023-04-20T10:32:28.146Z,11.30
2023-04-20T10:35:10.875Z,11.50
2023-04-20T10:37:51.852Z,11.70
2023-04-20T10:40:29.958Z,11.70
2023-04-20T10:42:57.141Z,11.60
2023-04-20T10:45:44.203Z,11.50
2023-04-20T10:48:11.905Z,11.70
2023-04-20T10:50:39.286Z,12.00
2023-04-20T10:53:07.363Z,12.10
2023-04-20T10:55:34.947Z,12.20
2023-04-20T10:58:02.331Z,12.20
2023-04-20T11:00:31.272Z,12.40
2023-04-20T11:02:58.539Z,12.50
2023-04-20T11:05:27.982Z,12.70
2023-04-20T11:07:59.854Z,12.80
2023-04-20T11:10:42.236Z,13.00
2023-04-20T11:13:23.506Z,13.20
2023-04-20T11:15:50.657Z,13.40
2023-04-20T11:18:18.776Z,13.60
2023-04-20T11:20:56.273Z,13.90
2023-04-20T11:23:27.437Z,13.80
2023-04-20T11:25:58.102Z,13.40
2023-04-20T11:28:30.450Z,12.70
2023-04-20T11:30:57.608Z,12.20
2023-04-20T11:33:33.289Z,12.00
2023-04-20T11:36:02.269Z,12.00
2023-04-20T11:38:34.859Z,12.40
2023-04-20T11:41:05.041Z,13.50
2023-04-20T11:43:32.572Z,14.60
2023-04-20T11:46:03.010Z,14.80
2023-04-20T11:48:33.510Z,14.80
2023-04-20T11:51:00.596Z,14.80
2023-04-20T11:53:27.694Z,14.60
2023-04-20T11:55:54.819Z,14.50
2023-04-20T11:58:21.874Z,14.40
2023-04-20T12:00:49.166Z,14.00
2023-04-20T12:03:16.644Z,13.20
2023-04-20T12:05:44.078Z,12.70
2023-04-20T12:08:11.215Z,12.00
2023-04-20T12:10:40.128Z,11.40
2023-04-20T12:13:07.246Z,11.20
2023-04-20T12:15:34.433Z,11.90
2023-04-20T12:18:01.673Z,12.50
2023-04-20T12:20:28.860Z,12.60
2023-04-20T12:22:57.211Z,12.70
2023-04-20T12:25:27.285Z,12.90
2023-04-20T12:27:54.457Z,13.00
2023-04-20T12:30:21.598Z,13.00
2023-04-20T12:32:51.783Z,12.60
2023-04-20T12:35:18.934Z,12.20
2023-04-20T12:37:46.001Z,11.70
2023-04-20T12:40:13.374Z,11.20
2023-04-20T12:42:40.453Z,10.90
2023-04-20T12:45:08.745Z,10.50
2023-04-20T12:47:36.116Z,10.50
2023-04-20T12:50:07.395Z,10.60
2023-04-20T12:52:34.764Z,10.70
2023-04-20T12:55:01.890Z,10.80
2023-04-20T12:57:29.064Z,11.10
2023-04-20T12:59:56.522Z,11.10
2023-04-20T13:02:23.935Z,11.20
2023-04-20T13:04:53.145Z,11.30
2023-04-20T13:07:20.409Z,11.40
2023-04-20T13:09:47.542Z,11.30
2023-04-20T13:12:14.674Z,11.20
2023-04-20T13:14:41.781Z,11.00
2023-04-20T13:17:09.010Z,10.70
2023-04-20T13:19:36.097Z,10.50
2023-04-20T13:22:04.007Z,10.40
2023-04-20T13:24:31.710Z,10.50
2023-04-20T13:26:59.941Z,10.50
2023-04-20T13:29:27.697Z,10.40
2023-04-20T13:31:54.898Z,10.20
2023-04-20T13:34:22.796Z,10.10
2023-04-20T13:36:50.031Z,10.00
2023-04-20T13:39:19.265Z,10.10
2023-04-20T13:41:49.464Z,10.20
2023-04-20T13:44:17.063Z,10.10
2023-04-20T13:46:46.621Z,10.20
2023-04-20T13:49:14.049Z,10.20
2023-04-20T13:51:41.844Z,9.90
2023-04-20T13:54:08.975Z,9.80
2023-04-20T13:56:36.132Z,9.80
2023-04-20T13:59:04.125Z,9.70
2023-04-20T14:01:31.648Z,9.60
2023-04-20T14:03:59.397Z,9.60
2023-04-20T14:06:27.724Z,9.70
2023-04-20T14:08:55.392Z,9.80
2023-04-20T14:11:22.693Z,9.80
2023-04-20T14:13:50.032Z,9.90
2023-04-20T14:16:17.275Z,10.10
2023-04-20T14:18:46.129Z,10.10
2023-04-20T14:21:13.563Z,10.20
2023-04-20T14:23:40.694Z,10.00
2023-04-20T14:26:08.963Z,9.90
2023-04-20T14:28:36.078Z,10.00
2023-04-20T14:31:03.555Z,10.10
2023-04-20T14:33:30.850Z,10.20
2023-04-20T14:36:00.258Z,10.20
2023-04-20T14:38:27.394Z,10.20
2023-04-20T14:40:54.627Z,10.30
2023-04-20T14:43:22.096Z,10.20
2023-04-20T14:45:50.649Z,10.10
2023-04-20T14:48:18.107Z,10.00
2023-04-20T14:50:45.254Z,10.00
2023-04-20T14:53:12.405Z,10.00
2023-04-20T14:55:39.492Z,10.10
2023-04-20T14:58:06.643Z,10.10
2023-04-20T15:00:35.269Z,10.10
2023-04-20T15:03:02.687Z,10.10
2023-04-20T15:05:30.348Z,10.10
2023-04-20T15:07:58.052Z,10.10
2023-04-20T15:10:25.397Z,10.30
2023-04-20T15:12:52.788Z,10.40
2023-04-20T15:15:20.268Z,10.40
2023-04-20T15:17:47.515Z,10.50
2023-04-20T15:20:17.640Z,10.60
2023-04-20T15:22:44.899Z,10.30
2023-04-20T15:25:12.483Z,10.30
2023-04-20T15:27:39.657Z,10.30
2023-04-20T15:30:07.754Z,10.40
2023-04-20T15:32:35.133Z,10.40
2023-04-20T15:35:02.648Z,10.30
2023-04-20T15:37:29.862Z,10.30
2023-04-20T15:39:57.080Z,10.20
2023-04-20T15:42:24.223Z,10.10
2023-04-20T15:44:51.319Z,10.10
2023-04-20T15:47:18.386Z,10.20
2023-04-20T15:49:45.497Z,10.00
2023-04-20T15:52:12.746Z,10.00
2023-04-20T15:54:40.341Z,9.80
2023-04-20T15:57:08.216Z,9.60
2023-04-20T15:59:35.381Z,9.50
2023-04-20T16:02:02.458Z,9.40
2023-04-20T16:04:29.649Z,9.30
2023-04-20T16:06:56.915Z,9.30
2023-04-20T16:09:24.178Z,9.30
2023-04-20T16:11:51.257Z,9.30
2023-04-20T16:14:18.673Z,9.30
2023-04-20T16:16:46.046Z,9.30
2023-04-20T16:19:15.715Z,9.20
2023-04-20T16:21:42.829Z,9.30
2023-04-20T16:24:09.909Z,9.30
2023-04-20T16:26:40.754Z,9.30
2023-04-20T16:29:08.606Z,9.30
2023-04-20T16:31:36.836Z,9.20
2023-04-20T16:34:04.546Z,9.20
2023-04-20T16:36:32.209Z,9.30
2023-04-20T16:39:04.230Z,9.20
2023-04-20T16:41:31.768Z,9.20
2023-04-20T16:43:59.085Z,9.20
2023-04-20T16:46:26.372Z,9.30
2023-04-20T16:48:54.687Z,9.20
2023-04-20T16:51:21.743Z,9.20
2023-04-20T16:53:49.303Z,9.20
2023-04-20T16:56:16.647Z,9.20
2023-04-20T16:58:43.705Z,9.00
2023-04-20T17:01:11.075Z,9.00
2023-04-20T17:03:38.331Z,8.90
2023-04-20T17:06:08.048Z,8.90
2023-04-20T17:08:37.538Z,8.80
2023-04-20T17:11:06.275Z,8.70
2023-04-20T17:13:34.307Z,8.60
2023-04-20T17:16:03.337Z,8.70
2023-04-20T17:18:30.846Z,8.50
2023-04-20T17:21:01.338Z,8.50
2023-04-20T17:23:28.537Z,8.40
2023-04-20T17:25:56.106Z,8.40
2023-04-20T17:28:23.833Z,8.20
2023-04-20T17:30:51.014Z,8.20
2023-04-20T17:33:18.154Z,8.20
2023-04-20T17:35:46.607Z,8.20
2023-04-20T17:38:14.433Z,8.00
2023-04-20T17:40:41.515Z,7.90
2023-04-20T17:43:08.641Z,8.10
2023-04-20T17:45:36.887Z,8.00
2023-04-20T17:48:04.560Z,8.00
2023-04-20T17:50:34.177Z,7.80
2023-04-20T17:53:06.916Z,7.70
2023-04-20T17:55:35.489Z,7.80
2023-04-20T17:58:02.811Z,7.80
2023-04-20T18:00:30.025Z,7.80
2023-04-20T18:02:58.714Z,7.60
2023-04-20T18:05:27.077Z,7.50
2023-04-20T18:07:54.223Z,7.40
2023-04-20T18:10:21.428Z,7.30
2023-04-20T18:12:48.864Z,7.30
2023-04-20T18:15:16.917Z,7.30
2023-04-20T18:17:44.468Z,7.30
2023-04-20T18:20:12.466Z,7.30
2023-04-20T18:22:39.702Z,7.30
2023-04-20T18:25:07.120Z,7.20
2023-04-20T18:27:35.481Z,7.10
2023-04-20T18:30:02.635Z,7.10
2023-04-20T18:32:31.277Z,7.00
2023-04-20T18:35:00.446Z,7.10
2023-04-20T18:37:27.669Z,7.00
2023-04-20T18:39:54.779Z,7.00
2023-04-20T18:42:22.501Z,7.00
2023-04-20T18:44:53.050Z,7.00
2023-04-20T18:47:22.282Z,7.00
2023-04-20T18:49:49.470Z,7.00
2023-04-20T18:52:18.428Z,7.10
2023-04-20T18:54:46.835Z,7.20
2023-04-20T18:57:14.036Z,7.10
2023-04-20T18:59:41.164Z,7.10
2023-04-20T19:02:10.380Z,7.10
2023-04-20T19:04:37.719Z,7.00
2023-04-20T19:07:05.077Z,7.10
2023-04-20T19:09:32.310Z,7.20
2023-04-20T19:11:59.441Z,7.20
2023-04-20T19:14:27.902Z,7.20
2023-04-20T19:16:55.075Z,7.20
2023-04-20T19:19:22.268Z,7.10
2023-04-20T19:21:49.977Z,7.20
2023-04-20T19:24:17.365Z,7.20
2023-04-20T19:26:44.654Z,7.20
2023-04-20T19:29:12.760Z,7.20
2023-04-20T19:31:42.161Z,7.20
2023-04-20T19:34:09.385Z,7.10
2023-04-20T19:36:37.791Z,7.10
2023-04-20T19:39:07.651Z,7.20
2023-04-20T19:41:35.854Z,7.20
2023-04-20T19:44:06.448Z,7.20
2023-04-20T19:46:34.141Z,7.20
2023-04-20T19:49:01.733Z,7.20
2023-04-20T19:51:29.023Z,7.30
2023-04-20T19:53:59.582Z,7.30
2023-04-20T19:56:27.326Z,7.20
2023-04-20T19:58:54.618Z,7.20
2023-04-20T20:01:21.849Z,7.20
2023-04-20T20:03:52.027Z,7.10
2023-04-20T20:06:19.744Z,7.10
2023-04-20T20:08:46.945Z,7.00
2023-04-20T20:11:14.134Z,7.00
2023-04-20T20:13:41.284Z,7.00
2023-04-20T20:16:12.610Z,7.00
2023-04-20T20:18:39.766Z,7.00
2023-04-20T20:21:06.945Z,7.00
2023-04-20T20:23:34.097Z,7.00
2023-04-20T20:26:02.121Z,7.00
2023-04-20T20:28:29.625Z,6.80
2023-04-20T20:30:57.278Z,6.90
2023-04-20T20:33:24.673Z,6.90
2023-04-20T20:35:52.726Z,6.90
2023-04-20T20:38:21.061Z,6.90
2023-04-20T20:40:50.800Z,6.80
2023-04-20T20:43:19.145Z,6.80
2023-04-20T20:45:47.621Z,6.80
2023-04-20T20:48:15.012Z,6.70
2023-04-20T20:50:42.393Z,6.70
2023-04-20T20:53:09.623Z,6.70
2023-04-20T20:55:36.853Z,6.70
2023-04-20T20:58:04.298Z,6.70
2023-04-20T21:00:33.352Z,6.80
2023-04-20T21:03:02.272Z,6.80
2023-04-20T21:05:29.614Z,6.80
2023-04-20T21:07:56.716Z,6.80
2023-04-20T21:10:23.948Z,6.90
2023-04-20T21:12:51.616Z,6.90
2023-04-20T21:15:18.791Z,6.90
2023-04-20T21:17:46.008Z,6.90
2023-04-20T21:20:13.516Z,7.00
2023-04-20T21:22:40.780Z,7.00
2023-04-20T21:25:08.254Z,7.00
2023-04-20T21:27:35.475Z,7.00
2023-04-20T21:30:02.644Z,7.00
2023-04-20T21:32:30.014Z,7.00
2023-04-20T21:34:57.142Z,7.00
2023-04-20T21:37:24.409Z,6.90
2023-04-20T21:39:51.549Z,6.90
2023-04-20T21:42:18.678Z,6.90
2023-04-20T21:44:45.778Z,6.90
2023-04-20T21:47:12.880Z,6.90
2023-04-20T21:49:40.015Z,6.90
2023-04-20T21:52:07.081Z,7.00
2023-04-20T21:54:34.807Z,7.00
2023-04-20T21:57:02.106Z,7.10
2023-04-20T21:59:29.172Z,7.00
2023-04-20T22:01:56.393Z,7.00
2023-04-20T22:04:27.138Z,7.20
2023-04-20T22:06:55.607Z,7.20
2023-04-20T22:09:23.426Z,7.20
2023-04-20T22:11:50.575Z,7.20
2023-04-20T22:14:17.819Z,7.20
2023-04-20T22:16:44.961Z,7.30
2023-04-20T22:19:12.414Z,7.20
2023-04-20T22:21:39.529Z,7.10
2023-04-20T22:24:06.943Z,7.20
2023-04-20T22:26:34.117Z,7.00
2023-04-20T22:29:01.212Z,6.90
2023-04-20T22:31:28.601Z,6.80
2023-04-20T22:33:55.841Z,6.60
2023-04-20T22:36:22.999Z,6.50
2023-04-20T22:38:50.148Z,6.40
2023-04-20T22:41:17.794Z,6.30
2023-04-20T22:43:45.002Z,6.20
2023-04-20T22:46:12.183Z,6.00
2023-04-20T22:48:40.535Z,5.90
2023-04-20T22:51:07.720Z,5.80
2023-04-20T22:53:34.865Z,5.70
2023-04-20T22:56:08.567Z,5.70
2023-04-20T22:58:35.807Z,5.60
2023-04-20T23:01:03.011Z,5.50
2023-04-20T23:03:31.220Z,5.40
2023-04-20T23:05:59.299Z,5.30
2023-04-20T23:08:28.152Z,5.20
2023-04-20T23:10:55.336Z,5.10
2023-04-20T23:13:24.852Z,5.00
2023-04-20T23:15:52.296Z,5.00
2023-04-20T23:18:19.497Z,4.90
2023-04-20T23:20:46.574Z,4.80
2023-04-20T23:23:13.700Z,4.70
2023-04-20T23:25:40.871Z,4.70
2023-04-20T23:28:08.028Z,4.60
2023-04-20T23:30:35.142Z,4.50
2023-04-20T23:33:02.257Z,4.50
2023-04-20T23:35:29.455Z,4.40
2023-04-20T23:37:58.153Z,4.30
2023-04-20T23:40:26.068Z,4.30
2023-04-20T23:42:53.227Z,4.20
2023-04-20T23:45:20.702Z,4.10
2023-04-20T23:47:48.076Z,4.10
2023-04-20T23:50:15.577Z,4.00
2023-04-20T23:52:42.716Z,3.90
2023-04-20T23:55:10.632Z,3.90
2023-04-20T23:57:40.097Z,3.80
